Time;durP1;ratioP1;P1;durP2;ratioP2;P2;SDS_P1;SDS_P2;PMS_P1;PMS_P2;Temp;Humidity;BMP_temperature;BMP_pressure;BME280_temperature;BME280_humidity;BME280_pressure;Samples;Min_cycle;Max_cycle;Signal;HPM_P1;HPM_P2
2021/06/18 00:01:25;;;;;;;8.10;7.40;;;24.60;99.90;;;;;;5031326;28;20180;-65
2021/06/18 00:03:51;;;;;;;8.38;7.68;;;24.50;99.90;;;;;;5033998;28;20175;-65
2021/06/18 00:06:17;;;;;;;8.23;7.63;;;24.50;99.90;;;;;;5017047;28;20180;-65
2021/06/18 00:08:44;;;;;;;8.68;7.97;;;24.50;99.90;;;;;;5013207;28;20200;-65
2021/06/18 00:11:09;;;;;;;8.82;8.23;;;24.50;99.90;;;;;;5028736;28;20197;-65
2021/06/18 00:13:35;;;;;;;8.50;7.68;;;24.50;99.90;;;;;;5032203;28;20247;-65
2021/06/18 00:16:01;;;;;;;8.00;7.40;;;24.40;99.90;;;;;;5014050;28;20172;-65
2021/06/18 00:18:27;;;;;;;6.28;5.85;;;24.40;99.90;;;;;;5013903;28;20196;-65
2021/06/18 00:20:53;;;;;;;9.88;6.70;;;24.40;99.90;;;;;;5033147;28;20172;-65
2021/06/18 00:23:18;;;;;;;7.45;6.85;;;24.40;99.90;;;;;;5033741;28;20558;-66
2021/06/18 00:25:44;;;;;;;7.30;6.70;;;24.50;99.90;;;;;;5015317;28;20234;-65
2021/06/18 00:28:13;;;;;;;11.18;7.80;;;24.50;99.90;;;;;;5013680;28;20204;-65
2021/06/18 00:30:39;;;;;;;9.10;7.63;;;24.40;99.90;;;;;;5014590;28;20188;-65
2021/06/18 00:33:05;;;;;;;7.57;7.03;;;24.40;99.90;;;;;;5013739;28;20164;-65
2021/06/18 00:35:31;;;;;;;8.25;7.55;;;24.40;99.90;;;;;;5028483;28;20186;-65
2021/06/18 00:37:57;;;;;;;9.45;8.10;;;24.30;99.90;;;;;;5033225;28;20204;-65
2021/06/18 00:40:22;;;;;;;8.15;7.50;;;24.20;99.90;;;;;;5019502;28;20283;-66
2021/06/18 00:42:48;;;;;;;8.30;7.57;;;24.20;99.90;;;;;;5013524;28;20703;-65
2021/06/18 00:45:14;;;;;;;7.80;7.28;;;24.30;99.90;;;;;;5031635;28;20187;-65
2021/06/18 00:47:50;;;;;;;7.68;7.07;;;24.30;99.90;;;;;;5033103;28;20756;-65
2021/06/18 00:50:17;;;;;;;8.27;7.50;;;24.20;99.90;;;;;;5014686;28;20172;-65
2021/06/18 00:52:42;;;;;;;7.13;6.30;;;24.20;99.90;;;;;;5013322;28;20203;-65
2021/06/18 00:55:10;;;;;;;7.18;6.57;;;24.20;99.90;;;;;;5029490;28;20176;-65
2021/06/18 00:57:36;;;;;;;8.30;7.60;;;24.20;99.90;;;;;;5032835;28;20188;-66
2021/06/18 01:00:04;;;;;;;7.47;6.78;;;24.10;99.90;;;;;;5026146;28;20176;-65
2021/06/18 01:02:30;;;;;;;8.68;6.72;;;24.00;99.90;;;;;;5013240;28;20625;-66
2021/06/18 01:04:55;;;;;;;8.50;7.68;;;23.90;99.90;;;;;;5026343;28;20186;-66
2021/06/18 01:07:50;;;;;;;7.55;6.97;;;23.90;99.90;;;;;;5032880;28;20687;-66
2021/06/18 01:10:28;;;;;;;7.65;7.05;;;23.90;99.90;;;;;;5017749;28;20251;-66
2021/06/18 01:13:12;;;;;;;7.45;6.70;;;23.80;99.90;;;;;;5014491;28;20187;-66
2021/06/18 01:16:22;;;;;;;9.02;7.82;;;23.70;99.90;;;;;;5032574;28;20641;-66
2021/06/18 01:18:59;;;;;;;9.00;8.20;;;23.70;99.90;;;;;;4923537;29;20223;-66
2021/06/18 01:21:31;;;;;;;9.50;8.70;;;23.70;99.90;;;;;;4999818;28;20184;-65
2021/06/18 01:24:20;;;;;;;8.73;8.10;;;23.70;99.90;;;;;;5023229;28;20262;-65
2021/06/18 01:27:12;;;;;;;9.90;7.82;;;23.70;99.90;;;;;;5032919;28;20253;-65
2021/06/18 01:29:46;;;;;;;8.63;7.90;;;23.60;99.90;;;;;;5016810;28;20196;-65
2021/06/18 01:32:17;;;;;;;8.60;7.63;;;23.60;99.90;;;;;;5012831;28;20164;-65
2021/06/18 01:34:44;;;;;;;9.43;7.68;;;23.50;99.90;;;;;;5027788;28;20171;-65
2021/06/18 01:37:16;;;;;;;9.30;8.50;;;23.50;99.90;;;;;;5032437;28;20245;-65
2021/06/18 01:39:44;;;;;;;7.60;7.00;;;23.50;99.90;;;;;;5017159;28;20558;-65
2021/06/18 01:42:11;;;;;;;7.78;7.15;;;23.50;99.90;;;;;;5013174;28;20172;-66
2021/06/18 01:44:37;;;;;;;12.52;8.10;;;23.50;99.90;;;;;;5032198;28;20171;-66
2021/06/18 01:47:07;;;;;;;8.27;7.47;;;23.40;99.90;;;;;;5032129;28;20199;-65
2021/06/18 01:49:36;;;;;;;9.10;8.25;;;23.40;99.90;;;;;;5031417;28;20214;-65
2021/06/18 01:52:04;;;;;;;8.68;7.80;;;23.40;99.90;;;;;;5031777;28;20175;-65
2021/06/18 01:54:31;;;;;;;8.40;7.53;;;23.50;99.90;;;;;;5012934;28;20183;-65
2021/06/18 01:56:59;;;;;;;8.77;7.40;;;23.40;99.90;;;;;;5012252;28;20226;-65
2021/06/18 01:59:28;;;;;;;7.95;7.28;;;23.30;99.90;;;;;;5013354;28;20204;-65
2021/06/18 02:01:54;;;;;;;8.05;7.55;;;23.30;99.90;;;;;;5011915;28;20593;-65
2021/06/18 02:04:20;;;;;;;8.32;7.63;;;23.30;99.90;;;;;;5029860;28;20172;-66
2021/06/18 02:06:48;;;;;;;9.23;8.38;;;23.40;99.90;;;;;;5032658;28;20195;-69
2021/06/18 02:09:16;;;;;;;8.77;8.15;;;23.30;99.90;;;;;;5017068;28;20227;-67
2021/06/18 02:11:43;;;;;;;9.07;8.25;;;23.30;99.90;;;;;;5013192;28;20232;-70
2021/06/18 02:14:20;;;;;;;7.90;7.30;;;23.20;99.90;;;;;;5028332;28;20188;-70
2021/06/18 02:16:51;;;;;;;9.20;8.20;;;23.10;99.90;;;;;;5030258;28;20182;-69
2021/06/18 02:19:19;;;;;;;9.27;8.55;;;23.00;99.90;;;;;;5013531;28;20188;-69
2021/06/18 02:21:46;;;;;;;8.57;7.93;;;23.00;99.90;;;;;;5015265;28;20202;-69
2021/06/18 02:24:14;;;;;;;8.45;7.63;;;23.00;99.90;;;;;;5033266;28;20175;-70
2021/06/18 02:26:41;;;;;;;8.68;7.97;;;23.00;99.90;;;;;;5031473;28;20203;-68
2021/06/18 02:29:07;;;;;;;9.93;9.18;;;22.90;99.90;;;;;;5013630;28;20554;-71
2021/06/18 02:31:36;;;;;;;9.52;8.55;;;22.90;99.90;;;;;;5012916;28;20179;-69
2021/06/18 02:34:02;;;;;;;8.80;8.20;;;22.80;99.90;;;;;;5029509;28;20186;-68
2021/06/18 02:36:28;;;;;;;8.98;8.18;;;22.80;99.90;;;;;;5033108;28;20176;-69
2021/06/18 02:38:53;;;;;;;8.13;7.45;;;22.80;99.90;;;;;;5016482;28;20200;-68
2021/06/18 02:41:19;;;;;;;8.73;7.88;;;22.80;99.90;;;;;;4997651;28;20254;-72
2021/06/18 02:43:45;;;;;;;8.73;7.82;;;22.80;99.90;;;;;;5031135;28;20182;-71
2021/06/18 02:46:40;;;;;;;8.75;8.00;;;22.90;99.90;;;;;;5013260;28;20191;-71
2021/06/18 02:49:11;;;;;;;8.90;7.93;;;22.80;99.90;;;;;;5008799;28;20227;-72
2021/06/18 02:51:39;;;;;;;8.57;7.88;;;22.80;99.90;;;;;;5019521;28;20179;-69
2021/06/18 02:54:40;;;;;;;9.75;8.77;;;22.80;99.90;;;;;;5033793;28;20192;-71
2021/06/18 02:57:19;;;;;;;8.25;7.55;;;22.80;99.90;;;;;;5023212;28;20634;-69
2021/06/18 03:00:07;;;;;;;8.35;7.75;;;22.70;99.90;;;;;;5012648;28;20544;-71
2021/06/18 03:02:40;;;;;;;12.50;7.97;;;22.70;99.90;;;;;;5027171;28;20184;-68
2021/06/18 03:05:08;;;;;;;8.35;7.70;;;22.60;99.90;;;;;;5012587;28;20169;-66
2021/06/18 03:07:35;;;;;;;8.20;7.57;;;22.70;99.90;;;;;;5032326;28;20219;-67
2021/06/18 03:10:06;;;;;;;8.05;7.28;;;22.70;99.90;;;;;;5032520;28;20179;-71
2021/06/18 03:12:35;;;;;;;8.57;7.82;;;22.70;99.90;;;;;;5013472;28;20184;-71
2021/06/18 03:15:05;;;;;;;8.65;7.90;;;22.70;99.90;;;;;;5014923;28;20176;-67
2021/06/18 03:17:35;;;;;;;8.52;7.72;;;22.80;99.90;;;;;;5013824;28;20184;-69
2021/06/18 03:20:08;;;;;;;9.48;8.75;;;22.80;99.90;;;;;;5014083;28;20515;-68
2021/06/18 03:22:36;;;;;;;8.23;7.53;;;22.70;99.90;;;;;;5013536;28;20180;-71
2021/06/18 03:25:03;;;;;;;9.00;8.20;;;22.70;99.90;;;;;;5024405;28;20186;-69
2021/06/18 03:27:31;;;;;;;8.68;7.88;;;22.80;99.90;;;;;;5026609;28;20226;-68
2021/06/18 03:29:57;;;;;;;8.88;8.07;;;22.90;99.90;;;;;;5012521;28;20254;-69
2021/06/18 03:32:24;;;;;;;9.07;7.78;;;23.00;99.90;;;;;;5016558;28;20277;-69
2021/06/18 03:34:50;;;;;;;8.45;7.82;;;23.10;99.90;;;;;;5032597;28;20172;-70
2021/06/18 03:37:17;;;;;;;10.63;8.63;;;23.20;99.90;;;;;;5033175;28;20180;-70
2021/06/18 03:39:43;;;;;;;10.52;9.43;;;23.20;99.90;;;;;;5035845;28;20179;-68
2021/06/18 03:42:10;;;;;;;8.52;7.82;;;23.40;99.90;;;;;;5022362;28;20181;-68
2021/06/18 03:44:36;;;;;;;9.20;8.30;;;23.30;99.90;;;;;;5016367;28;20198;-70
2021/06/18 03:47:04;;;;;;;9.15;8.30;;;23.30;99.90;;;;;;5028138;28;20214;-68
2021/06/18 03:49:30;;;;;;;8.55;7.95;;;23.20;99.90;;;;;;5035360;28;20273;-65
2021/06/18 03:51:56;;;;;;;9.52;8.73;;;23.10;99.90;;;;;;5022952;28;20187;-65
2021/06/18 03:54:23;;;;;;;10.00;9.00;;;23.00;99.90;;;;;;5014343;28;20588;-65
2021/06/18 03:56:49;;;;;;;9.55;8.73;;;22.80;99.90;;;;;;5017441;28;20180;-65
2021/06/18 03:59:16;;;;;;;9.27;8.48;;;23.00;99.90;;;;;;5014401;28;20267;-64
2021/06/18 04:01:46;;;;;;;10.25;9.25;;;23.20;99.90;;;;;;5024002;28;20547;-65
2021/06/18 04:04:12;;;;;;;10.10;9.18;;;23.20;99.90;;;;;;5034332;28;20312;-64
2021/06/18 04:06:39;;;;;;;11.15;10.07;;;23.30;99.90;;;;;;5028370;28;20294;-65
2021/06/18 04:09:05;;;;;;;10.60;9.60;;;23.50;99.90;;;;;;5034010;28;20277;-65
2021/06/18 04:11:31;;;;;;;12.60;9.13;;;23.50;99.90;;;;;;5032037;28;20455;-65
2021/06/18 04:13:57;;;;;;;9.75;8.85;;;23.70;99.90;;;;;;5033587;28;20179;-65
2021/06/18 04:16:23;;;;;;;9.43;8.63;;;23.80;99.90;;;;;;5022501;28;20207;-65
2021/06/18 04:18:49;;;;;;;10.10;9.30;;;24.10;99.90;;;;;;5013916;28;20559;-65
2021/06/18 04:21:21;;;;;;;9.45;8.48;;;24.40;99.90;;;;;;5022840;28;20202;-65
2021/06/18 04:23:47;;;;;;;9.70;8.75;;;24.60;99.90;;;;;;5033524;28;20195;-65
2021/06/18 04:26:13;;;;;;;9.75;8.88;;;24.90;99.90;;;;;;5025298;28;20173;-65
2021/06/18 04:28:39;;;;;;;9.75;9.07;;;24.90;99.90;;;;;;5013740;28;20196;-65
2021/06/18 04:31:05;;;;;;;9.57;8.68;;;25.30;99.90;;;;;;5019866;28;20180;-65
2021/06/18 04:33:32;;;;;;;10.98;8.57;;;25.60;99.90;;;;;;5033542;28;20190;-65
2021/06/18 04:35:58;;;;;;;8.75;8.05;;;25.90;99.90;;;;;;5019688;28;20180;-65
2021/06/18 04:38:23;;;;;;;8.95;8.07;;;26.00;99.90;;;;;;5013661;28;20192;-65
2021/06/18 04:40:52;;;;;;;7.65;7.05;;;26.30;99.90;;;;;;5024731;28;20210;-65
2021/06/18 04:43:19;;;;;;;7.78;7.28;;;26.60;99.90;;;;;;5033379;28;20225;-65
2021/06/18 04:45:44;;;;;;;8.48;7.78;;;26.70;99.90;;;;;;5022526;28;20188;-65
2021/06/18 04:48:11;;;;;;;8.30;7.53;;;26.90;99.90;;;;;;5041705;22;20231;-64
2021/06/18 04:50:37;;;;;;;8.32;7.50;;;27.20;99.90;;;;;;5032440;28;20184;-65
2021/06/18 04:53:06;;;;;;;7.63;7.03;;;27.50;99.90;;;;;;5033138;28;20172;-65
2021/06/18 04:55:31;;;;;;;9.25;8.43;;;27.80;99.90;;;;;;5032961;28;20267;-65
2021/06/18 04:57:57;;;;;;;10.55;9.73;;;28.00;99.90;;;;;;5032772;28;20270;-65
2021/06/18 05:00:25;;;;;;;9.52;8.82;;;28.20;99.90;;;;;;5032109;28;20187;-63
2021/06/18 05:02:52;;;;;;;8.25;7.50;;;28.30;99.90;;;;;;5032922;28;20175;-64
2021/06/18 05:05:17;;;;;;;10.50;9.63;;;28.50;99.90;;;;;;5020952;28;20195;-65
2021/06/18 05:07:43;;;;;;;9.63;8.73;;;28.50;99.90;;;;;;5012697;28;20283;-64
2021/06/18 05:10:09;;;;;;;9.77;8.85;;;28.70;99.90;;;;;;5022451;28;20548;-65
2021/06/18 05:12:35;;;;;;;9.32;8.35;;;28.90;99.90;;;;;;5032512;28;20171;-64
2021/06/18 05:15:02;;;;;;;9.63;8.93;;;29.00;99.90;;;;;;5024143;28;20210;-66
2021/06/18 05:17:28;;;;;;;10.50;9.55;;;29.00;99.90;;;;;;5012840;28;20230;-65
2021/06/18 05:19:53;;;;;;;9.20;8.50;;;29.00;99.90;;;;;;5018550;28;20195;-64
2021/06/18 05:22:19;;;;;;;9.85;9.05;;;29.00;99.90;;;;;;5032551;28;20214;-64
2021/06/18 05:24:44;;;;;;;8.85;8.15;;;29.00;99.90;;;;;;5026367;28;20188;-65
2021/06/18 05:27:10;;;;;;;9.27;8.57;;;29.10;99.90;;;;;;5012713;28;20668;-65
2021/06/18 05:29:36;;;;;;;8.32;7.53;;;29.10;99.90;;;;;;5015016;28;20200;-65
2021/06/18 05:32:03;;;;;;;8.43;7.72;;;29.20;99.90;;;;;;5032002;28;20641;-65
2021/06/18 05:34:28;;;;;;;8.60;7.80;;;29.20;99.90;;;;;;5021874;28;20176;-65
2021/06/18 05:36:54;;;;;;;8.98;8.18;;;29.30;99.90;;;;;;5030793;28;20172;-65
2021/06/18 05:39:20;;;;;;;8.18;7.57;;;29.40;99.90;;;;;;5031722;28;20294;-65
2021/06/18 05:41:45;;;;;;;8.48;7.60;;;29.60;99.90;;;;;;5029901;28;20175;-64
2021/06/18 05:44:11;;;;;;;9.27;8.38;;;29.80;99.90;;;;;;5026049;28;20666;-65
2021/06/18 05:46:36;;;;;;;9.43;8.73;;;30.00;99.90;;;;;;5012263;28;20223;-65
2021/06/18 05:49:02;;;;;;;9.40;8.70;;;30.10;99.90;;;;;;5015657;28;20213;-65
2021/06/18 05:51:28;;;;;;;10.32;9.35;;;30.10;99.90;;;;;;5031239;28;20176;-65
2021/06/18 05:53:54;;;;;;;9.27;8.57;;;29.90;99.90;;;;;;5029380;28;20261;-64
2021/06/18 05:56:20;;;;;;;11.02;9.93;;;29.90;99.90;;;;;;5030309;28;20242;-64
2021/06/18 05:58:46;;;;;;;9.75;8.82;;;29.90;99.90;;;;;;5027475;28;20200;-64
2021/06/18 06:01:12;;;;;;;13.30;11.95;;;29.90;99.90;;;;;;5010953;28;20172;-67
2021/06/18 06:03:37;;;;;;;8.63;7.90;;;29.70;99.90;;;;;;5017684;28;20175;-67
2021/06/18 06:06:03;;;;;;;10.07;9.10;;;29.60;99.90;;;;;;5030311;28;20164;-67
2021/06/18 06:08:31;;;;;;;9.65;8.85;;;29.70;99.90;;;;;;5026728;28;20256;-66
2021/06/18 06:10:57;;;;;;;9.32;8.50;;;29.80;99.90;;;;;;5031073;28;20183;-66
2021/06/18 06:13:22;;;;;;;9.35;8.55;;;30.00;99.90;;;;;;5027942;28;20251;-66
2021/06/18 06:15:49;;;;;;;9.43;8.63;;;30.10;99.90;;;;;;5011693;28;20318;-67
2021/06/18 06:18:14;;;;;;;9.35;8.65;;;30.40;99.90;;;;;;5013470;28;20207;-66
2021/06/18 06:20:44;;;;;;;8.15;7.53;;;30.50;99.90;;;;;;5031125;28;20172;-66
2021/06/18 06:23:11;;;;;;;8.35;7.55;;;30.80;99.90;;;;;;5022855;28;20172;-66
2021/06/18 06:25:37;;;;;;;7.80;7.20;;;31.30;99.90;;;;;;5011629;28;20172;-67
2021/06/18 06:28:04;;;;;;;8.10;7.38;;;31.50;99.90;;;;;;5018223;28;20210;-66
2021/06/18 06:30:29;;;;;;;7.85;7.18;;;32.00;99.90;;;;;;5017196;28;20175;-66
2021/06/18 06:32:55;;;;;;;8.60;7.80;;;32.40;99.90;;;;;;5012579;28;20258;-63
2021/06/18 06:35:22;;;;;;;7.32;6.82;;;32.70;99.90;;;;;;5011676;28;20168;-64
2021/06/18 06:37:47;;;;;;;8.00;7.30;;;32.70;99.90;;;;;;5014601;28;20182;-64
2021/06/18 06:40:13;;;;;;;8.77;7.97;;;32.40;99.90;;;;;;5030987;28;20171;-64
2021/06/18 06:42:39;;;;;;;9.32;8.40;;;32.30;99.90;;;;;;5029554;28;20175;-64
2021/06/18 06:45:06;;;;;;;9.80;8.80;;;32.50;99.90;;;;;;5031082;28;20189;-63
2021/06/18 06:47:32;;;;;;;9.55;7.28;;;32.70;99.90;;;;;;5030853;28;20212;-64
2021/06/18 06:49:57;;;;;;;9.13;8.32;;;32.40;99.90;;;;;;5017996;28;20187;-64
2021/06/18 06:52:23;;;;;;;9.30;8.50;;;32.60;99.90;;;;;;5031418;28;20167;-65
2021/06/18 06:54:48;;;;;;;8.60;7.90;;;33.00;99.90;;;;;;5012981;28;20597;-64
2021/06/18 06:57:16;;;;;;;8.98;8.27;;;33.70;99.90;;;;;;5011457;28;20172;-64
2021/06/18 06:59:42;;;;;;;8.25;7.45;;;34.00;99.90;;;;;;5013980;28;20203;-63
2021/06/18 07:02:08;;;;;;;8.45;7.65;;;34.20;99.90;;;;;;5031056;28;20183;-64
2021/06/18 07:04:33;;;;;;;10.07;8.68;;;33.70;99.90;;;;;;5016514;28;20184;-64
2021/06/18 07:06:59;;;;;;;10.25;9.30;;;33.80;99.90;;;;;;5011090;28;20216;-65
2021/06/18 07:09:25;;;;;;;15.23;11.25;;;33.50;99.90;;;;;;5023859;28;20207;-65
2021/06/18 07:11:50;;;;;;;8.98;8.07;;;32.70;99.90;;;;;;5032232;28;20175;-64
2021/06/18 07:14:16;;;;;;;11.20;10.27;;;32.40;99.90;;;;;;5023900;28;20590;-64
2021/06/18 07:16:42;;;;;;;11.82;10.80;;;32.10;99.90;;;;;;5014931;28;20650;-64
2021/06/18 07:19:07;;;;;;;10.43;9.52;;;31.80;99.90;;;;;;5022736;28;20199;-63
2021/06/18 07:21:33;;;;;;;9.98;8.98;;;31.60;99.90;;;;;;5014858;28;20179;-63
2021/06/18 07:23:59;;;;;;;11.35;10.30;;;31.20;99.90;;;;;;5018159;28;20180;-64
2021/06/18 07:26:25;;;;;;;9.82;8.82;;;30.90;99.90;;;;;;5015022;28;20200;-65
2021/06/18 07:28:50;;;;;;;10.40;8.35;;;30.80;99.90;;;;;;5020131;28;20250;-64
2021/06/18 07:31:16;;;;;;;10.13;9.27;;;30.80;99.90;;;;;;5034476;28;20540;-64
2021/06/18 07:33:42;;;;;;;9.75;8.95;;;30.60;99.90;;;;;;5030098;28;20218;-63
2021/06/18 07:36:08;;;;;;;13.18;12.05;;;30.60;99.90;;;;;;5014663;28;20168;-63
2021/06/18 07:38:34;;;;;;;13.65;10.00;;;30.40;99.90;;;;;;5016853;28;20218;-65
2021/06/18 07:40:59;;;;;;;9.98;8.35;;;30.30;99.90;;;;;;5033855;28;20171;-66
2021/06/18 07:43:25;;;;;;;11.50;10.32;;;30.60;99.90;;;;;;5033597;28;20176;-65
2021/06/18 07:45:51;;;;;;;10.38;9.10;;;30.80;99.90;;;;;;5012949;28;20657;-66
2021/06/18 07:48:16;;;;;;;8.77;8.02;;;30.70;99.90;;;;;;5014341;28;20688;-66
2021/06/18 07:50:42;;;;;;;11.15;10.27;;;30.70;99.90;;;;;;5032503;28;20179;-66
2021/06/18 07:53:08;;;;;;;14.30;13.20;;;30.50;99.90;;;;;;5027569;28;20259;-65
2021/06/18 07:55:34;;;;;;;11.63;10.68;;;30.20;99.90;;;;;;5014420;28;20176;-65
2021/06/18 07:58:00;;;;;;;10.27;9.48;;;30.00;99.90;;;;;;5027732;28;20211;-65
2021/06/18 08:00:25;;;;;;;10.93;9.93;;;29.80;99.90;;;;;;5013957;28;20223;-65
2021/06/18 08:02:51;;;;;;;9.43;8.63;;;29.60;99.90;;;;;;5016620;28;20171;-65
2021/06/18 08:05:17;;;;;;;11.43;10.52;;;29.60;99.90;;;;;;5034014;28;20566;-65
2021/06/18 08:07:44;;;;;;;10.05;9.05;;;29.70;99.90;;;;;;5031958;28;20211;-65
2021/06/18 08:10:13;;;;;;;10.52;9.63;;;29.70;99.90;;;;;;5013753;28;20164;-66
2021/06/18 08:12:39;;;;;;;11.75;10.35;;;29.60;99.90;;;;;;5013654;28;20645;-66
2021/06/18 08:15:07;;;;;;;12.27;11.02;;;29.40;99.90;;;;;;5033821;28;20179;-67
2021/06/18 08:17:33;;;;;;;11.25;10.18;;;29.00;99.90;;;;;;5033559;28;20172;-66
2021/06/18 08:19:59;;;;;;;11.13;10.13;;;28.70;99.90;;;;;;5017980;28;20180;-66
2021/06/18 08:22:25;;;;;;;12.13;11.13;;;28.60;99.90;;;;;;5017454;28;20175;-67
2021/06/18 08:24:50;;;;;;;11.50;10.45;;;28.70;99.90;;;;;;5013771;28;20187;-66
2021/06/18 08:27:16;;;;;;;10.45;9.55;;;29.10;99.90;;;;;;5012263;28;20693;-66
2021/06/18 08:29:42;;;;;;;12.52;10.55;;;29.80;99.90;;;;;;5020060;28;20199;-66
2021/06/18 08:32:08;;;;;;;9.43;8.50;;;30.30;99.90;;;;;;5033405;28;20587;-65
2021/06/18 08:34:33;;;;;;;11.23;10.23;;;31.00;99.90;;;;;;5032949;28;20183;-66
2021/06/18 08:36:59;;;;;;;10.68;9.68;;;31.40;99.90;;;;;;5033397;28;20171;-64
2021/06/18 08:39:25;;;;;;;11.93;10.82;;;32.00;99.90;;;;;;5033485;28;20672;-65
2021/06/18 08:41:50;;;;;;;10.63;9.23;;;32.50;99.90;;;;;;5033159;28;20218;-67
2021/06/18 08:44:17;;;;;;;11.10;9.02;;;32.80;99.90;;;;;;5033301;28;20171;-64
2021/06/18 08:46:43;;;;;;;8.77;7.97;;;32.70;99.90;;;;;;5033112;28;20206;-64
2021/06/18 08:49:09;;;;;;;8.73;7.90;;;32.70;99.90;;;;;;5033119;28;20211;-64
2021/06/18 08:51:35;;;;;;;10.30;9.48;;;33.00;99.90;;;;;;5031471;28;20175;-64
2021/06/18 08:54:00;;;;;;;11.38;9.57;;;33.00;99.90;;;;;;5032863;28;20195;-63
2021/06/18 08:56:26;;;;;;;9.15;8.27;;;33.10;99.90;;;;;;5033048;28;20168;-64
2021/06/18 08:58:52;;;;;;;10.63;9.57;;;33.30;99.90;;;;;;5032983;28;20257;-65
2021/06/18 09:01:18;;;;;;;8.52;7.70;;;33.20;99.90;;;;;;5020289;28;20184;-65
2021/06/18 09:03:48;;;;;;;9.52;8.73;;;33.20;99.90;;;;;;5012900;28;20176;-63
2021/06/18 09:06:39;;;;;;;8.02;7.43;;;33.30;99.90;;;;;;5013139;28;20200;-64
2021/06/18 09:09:18;;;;;;;8.25;7.50;;;33.30;99.90;;;;;;5028463;28;20208;-65
2021/06/18 09:11:53;;;;;;;8.32;7.72;;;33.00;99.90;;;;;;5012365;28;20176;-64
2021/06/18 09:14:26;;;;;;;8.82;8.13;;;33.00;99.90;;;;;;5013330;28;20180;-65
2021/06/18 09:17:07;;;;;;;8.82;8.02;;;33.00;99.90;;;;;;5012801;28;20251;-63
2021/06/18 09:19:34;;;;;;;10.60;8.90;;;33.20;99.90;;;;;;5011626;28;20196;-65
2021/06/18 09:22:01;;;;;;;9.25;8.40;;;33.60;99.90;;;;;;5012235;28;20195;-63
2021/06/18 09:24:39;;;;;;;9.68;8.70;;;33.90;99.90;;;;;;5012899;28;20227;-64
2021/06/18 09:27:06;;;;;;;9.90;9.00;;;34.00;99.90;;;;;;5012757;28;20214;-63
2021/06/18 09:29:32;;;;;;;9.48;8.52;;;34.00;99.90;;;;;;5011423;28;20215;-64
2021/06/18 09:32:01;;;;;;;8.48;7.65;;;33.70;99.90;;;;;;5013470;28;20185;-64
2021/06/18 09:34:48;;;;;;;8.10;7.50;;;33.50;99.90;;;;;;5030549;28;20183;-64
2021/06/18 09:37:19;;;;;;;8.23;7.40;;;33.30;99.90;;;;;;5032324;28;20179;-65
2021/06/18 09:40:03;;;;;;;7.05;6.55;;;33.40;99.90;;;;;;5032008;28;20199;-63
2021/06/18 09:42:30;;;;;;;8.38;7.78;;;33.90;99.90;;;;;;5032123;28;20236;-66
2021/06/18 09:45:11;;;;;;;5.85;5.28;;;34.50;99.90;;;;;;5032109;28;20171;-65
2021/06/18 09:47:39;;;;;;;5.80;5.30;;;35.30;99.90;;;;;;5030944;28;20199;-65
2021/06/18 09:50:22;;;;;;;5.20;4.80;;;35.70;99.90;;;;;;5028199;28;20180;-66
2021/06/18 09:52:48;;;;;;;5.50;5.00;;;35.80;99.90;;;;;;5031848;28;20171;-66
2021/06/18 09:55:23;;;;;;;5.97;5.47;;;35.90;99.90;;;;;;5017917;28;20176;-66
2021/06/18 09:57:55;;;;;;;5.85;5.28;;;35.80;99.90;;;;;;5012233;28;20219;-64
2021/06/18 10:00:26;;;;;;;6.03;5.40;;;35.40;99.90;;;;;;5011983;28;20173;-64
2021/06/18 10:02:53;;;;;;;7.28;5.57;;;35.20;99.90;;;;;;5012357;28;20191;-66
2021/06/18 10:05:27;;;;;;;6.70;5.57;;;35.10;99.90;;;;;;5010109;28;20664;-64
2021/06/18 10:07:54;;;;;;;6.43;5.40;;;35.00;99.90;;;;;;5011991;28;20269;-63
2021/06/18 10:10:21;;;;;;;6.80;5.20;;;35.10;99.90;;;;;;5011699;28;20235;-64
2021/06/18 10:12:47;;;;;;;5.68;5.28;;;35.10;99.90;;;;;;5024260;28;20167;-64
2021/06/18 10:15:18;;;;;;;6.47;5.05;;;35.30;99.90;;;;;;5031661;28;20171;-64
2021/06/18 10:17:47;;;;;;;5.25;4.03;;;35.70;99.90;;;;;;5019704;28;20522;-65
2021/06/18 10:20:21;;;;;;;7.10;4.60;;;36.00;99.90;;;;;;5011575;28;20238;-64
2021/06/18 10:23:06;;;;;;;4.57;4.18;;;36.50;99.90;;;;;;5022990;28;20176;-63
2021/06/18 10:25:36;;;;;;;5.40;4.55;;;37.10;99.90;;;;;;5031659;28;20179;-65
2021/06/18 10:28:09;;;;;;;7.03;4.63;;;37.60;99.90;;;;;;5018007;28;20353;-64
2021/06/18 10:30:56;;;;;;;3.90;3.53;;;37.70;99.90;;;;;;5011460;28;20192;-64
2021/06/18 10:33:28;;;;;;;5.97;4.20;;;37.50;99.90;;;;;;5025818;28;20183;-64
2021/06/18 10:36:03;;;;;;;4.53;3.90;;;37.50;99.90;;;;;;5031179;28;20191;-64
2021/06/18 10:38:43;;;;;;;6.13;4.47;;;37.30;99.90;;;;;;5028406;28;20199;-64
2021/06/18 10:41:17;;;;;;;5.78;4.47;;;37.50;99.90;;;;;;5015433;28;20218;-64
2021/06/18 10:43:49;;;;;;;5.38;4.10;;;37.90;99.90;;;;;;5011754;28;20233;-66
2021/06/18 10:46:14;;;;;;;5.68;4.50;;;38.40;99.90;;;;;;5015284;28;20262;-66
2021/06/18 10:48:55;;;;;;;5.10;4.15;;;39.00;99.90;;;;;;5036270;22;20306;-64
2021/06/18 10:51:32;;;;;;;5.72;4.10;;;38.90;99.90;;;;;;5034744;28;20175;-64
2021/06/18 10:54:03;;;;;;;4.85;4.35;;;38.90;99.90;;;;;;5035231;28;20286;-64
2021/06/18 10:56:47;;;;;;;5.32;4.30;;;38.80;99.90;;;;;;5035089;28;20234;-64
2021/06/18 10:59:27;;;;;;;5.25;4.57;;;38.50;99.90;;;;;;5035196;28;20684;-64
2021/06/18 11:01:53;;;;;;;6.43;5.63;;;38.40;99.90;;;;;;5034417;28;20178;-64
2021/06/18 11:04:44;;;;;;;7.57;5.18;;;38.40;99.90;;;;;;5034862;28;20174;-64
2021/06/18 11:07:27;;;;;;;7.53;5.70;;;38.40;99.90;;;;;;5015493;28;20219;-64
2021/06/18 11:09:53;;;;;;;5.97;5.38;;;38.80;99.90;;;;;;5014903;28;20196;-64
2021/06/18 11:12:22;;;;;;;5.82;5.32;;;39.20;99.90;;;;;;5015171;28;20215;-63
2021/06/18 11:14:48;;;;;;;5.78;4.65;;;39.50;99.90;;;;;;5015819;28;20675;-64
2021/06/18 11:18:19;;;;;;;5.55;4.43;;;39.60;99.90;;;;;;5034899;28;20176;-64
2021/06/18 11:20:49;;;;;;;4.88;4.38;;;39.60;99.90;;;;;;4945476;29;20253;-64
2021/06/18 11:23:23;;;;;;;4.20;3.90;;;40.10;99.90;;;;;;4935316;29;20315;-64
2021/06/18 11:25:57;;;;;;;4.50;4.10;;;40.40;99.90;;;;;;5000910;28;20555;-63
2021/06/18 11:28:34;;;;;;;5.25;3.70;;;40.20;99.20;;;;;;5034692;28;20268;-64
2021/06/18 11:31:07;;;;;;;4.10;3.67;;;40.10;99.90;;;;;;5027714;28;20532;-64
2021/06/18 11:33:44;;;;;;;5.70;3.17;;;40.40;95.50;;;;;;5014137;28;20212;-64
2021/06/18 11:36:35;;;;;;;5.75;4.32;;;40.50;96.70;;;;;;5023965;28;20238;-64
2021/06/18 11:39:07;;;;;;;4.40;4.00;;;40.10;97.30;;;;;;5014493;28;20231;-64
2021/06/18 11:41:39;;;;;;;4.40;4.00;;;39.60;98.10;;;;;;5014760;28;20180;-64
2021/06/18 11:44:05;;;;;;;4.47;4.10;;;39.20;97.50;;;;;;5014660;28;20176;-64
2021/06/18 11:46:33;;;;;;;4.65;4.25;;;38.50;99.90;;;;;;5026204;28;20652;-64
2021/06/18 11:49:20;;;;;;;4.25;3.95;;;38.60;99.90;;;;;;5033951;28;20265;-64
2021/06/18 11:51:59;;;;;;;4.40;3.75;;;38.90;99.90;;;;;;5020546;28;20176;-64
2021/06/18 11:54:30;;;;;;;4.43;4.03;;;39.40;99.90;;;;;;5014491;28;20601;-64
2021/06/18 11:57:19;;;;;;;6.05;3.88;;;39.80;97.80;;;;;;5010296;28;20188;-64
2021/06/18 11:59:53;;;;;;;3.88;3.58;;;40.00;96.40;;;;;;5033650;28;20187;-64
2021/06/18 12:02:24;;;;;;;4.00;3.60;;;40.10;97.00;;;;;;5015393;28;20264;-64
2021/06/18 12:05:10;;;;;;;4.18;3.38;;;40.10;96.10;;;;;;5021724;28;20616;-64
2021/06/18 12:07:37;;;;;;;4.10;3.80;;;39.90;93.70;;;;;;5033964;28;20207;-64
2021/06/18 12:10:04;;;;;;;4.40;3.65;;;40.00;94.40;;;;;;5023940;28;20196;-64
2021/06/18 12:12:43;;;;;;;4.47;3.83;;;40.20;94.00;;;;;;5014469;28;20172;-64
2021/06/18 12:15:20;;;;;;;5.07;4.60;;;40.30;94.00;;;;;;5023402;28;20191;-64
2021/06/18 12:17:59;;;;;;;4.35;4.05;;;40.10;93.60;;;;;;5033948;28;20190;-63
2021/06/18 12:20:45;;;;;;;4.95;4.55;;;39.90;92.80;;;;;;5022364;28;20245;-64
2021/06/18 12:23:17;;;;;;;3.55;3.25;;;39.70;92.10;;;;;;5013632;28;20172;-63
2021/06/18 12:25:42;;;;;;;4.20;3.97;;;39.60;94.30;;;;;;5022754;28;20203;-64
2021/06/18 12:28:09;;;;;;;4.32;3.97;;;39.70;94.90;;;;;;5033331;28;20199;-64
2021/06/18 12:30:37;;;;;;;5.85;4.15;;;39.90;93.40;;;;;;5021421;28;20176;-63
2021/06/18 12:33:05;;;;;;;4.88;3.67;;;40.10;92.00;;;;;;5012889;28;20210;-64
2021/06/18 12:35:42;;;;;;;4.72;4.32;;;40.50;91.70;;;;;;5016921;28;20513;-64
2021/06/18 12:38:10;;;;;;;3.75;3.50;;;40.70;91.90;;;;;;4995057;28;20188;-64
2021/06/18 12:40:36;;;;;;;3.72;3.50;;;40.70;91.30;;;;;;5032883;28;20187;-64
2021/06/18 12:43:08;;;;;;;3.58;3.28;;;41.10;92.90;;;;;;5033143;28;20544;-65
2021/06/18 12:45:40;;;;;;;3.92;3.60;;;41.50;91.10;;;;;;5033016;28;20182;-64
2021/06/18 12:48:14;;;;;;;3.70;3.30;;;42.00;90.30;;;;;;5020082;28;20346;-64
2021/06/18 12:51:00;;;;;;;3.92;3.55;;;41.90;89.60;;;;;;5012584;28;20183;-64
2021/06/18 12:53:43;;;;;;;4.25;3.40;;;42.00;90.30;;;;;;5013716;28;20183;-63
2021/06/18 12:56:22;;;;;;;3.92;3.38;;;41.60;87.00;;;;;;5018499;28;20272;-65